Time;durP1;ratioP1;P1;durP2;ratioP2;P2;SDS_P1;SDS_P2;PMS_P1;PMS_P2;Temp;Humidity;BMP_temperature;BMP_pressure;BME280_temperature;BME280_humidity;BME280_pressure;Samples;Min_cycle;Max_cycle;Signal;HPM_P1;HPM_P2
2024/02/29 00:01:17;;;;;;;;;;;12.10;88.70;;;;;;5017679;28;87492;-60
2024/02/29 00:03:42;;;;;;;;;;;12.10;88.70;;;;;;5015631;28;87141;-60
2024/02/29 00:06:08;;;;;;;;;;;12.10;88.70;;;;;;5017343;28;88085;-60
2024/02/29 00:08:33;;;;;;;;;;;12.10;88.70;;;;;;5015135;28;87571;-60
2024/02/29 00:10:59;;;;;;;;;;;12.10;88.70;;;;;;5014437;28;87111;-60
2024/02/29 00:13:24;;;;;;;;;;;12.10;88.70;;;;;;5018774;28;87686;-60
2024/02/29 00:15:50;;;;;;;;;;;12.10;88.60;;;;;;5018532;28;87383;-58
2024/02/29 00:18:15;;;;;;;;;;;12.10;88.60;;;;;;5018689;28;87002;-60
2024/02/29 00:20:41;;;;;;;;;;;12.10;88.60;;;;;;5016716;28;87558;-61
2024/02/29 00:23:07;;;;;;;;;;;12.10;88.50;;;;;;5016639;28;86413;-60
2024/02/29 00:25:32;;;;;;;;;;;12.10;88.50;;;;;;5020589;28;86994;-60
2024/02/29 00:27:58;;;;;;;;;;;12.10;88.50;;;;;;5019334;28;87643;-60
2024/02/29 00:30:23;;;;;;;;;;;12.10;88.50;;;;;;5020409;28;87904;-60
2024/02/29 00:32:50;;;;;;;;;;;12.10;88.50;;;;;;5014040;28;87901;-60
2024/02/29 00:35:16;;;;;;;;;;;12.10;88.40;;;;;;5014351;28;87095;-58
2024/02/29 00:37:41;;;;;;;;;;;12.00;88.40;;;;;;5018439;28;86987;-60
2024/02/29 00:40:07;;;;;;;;;;;12.00;88.30;;;;;;5013659;28;86979;-60
2024/02/29 00:42:34;;;;;;;;;;;12.00;88.30;;;;;;5016302;28;86995;-60
2024/02/29 00:45:00;;;;;;;;;;;12.00;88.40;;;;;;5015971;28;86974;-60
2024/02/29 00:47:25;;;;;;;;;;;12.00;88.30;;;;;;5013029;28;86635;-60
2024/02/29 00:49:51;;;;;;;;;;;12.00;88.30;;;;;;5021356;28;87101;-59
2024/02/29 00:52:16;;;;;;;;;;;12.00;88.30;;;;;;5021127;28;87932;-60
2024/02/29 00:54:42;;;;;;;;;;;12.00;88.20;;;;;;5014592;28;88031;-60
2024/02/29 00:57:07;;;;;;;;;;;12.00;88.20;;;;;;5021224;28;88966;-60
2024/02/29 00:59:33;;;;;;;;;;;12.00;88.20;;;;;;5016254;28;87680;-60
2024/02/29 01:01:58;;;;;;;;;;;12.00;88.20;;;;;;5016691;28;87264;-60
2024/02/29 01:04:24;;;;;;;;;;;12.00;88.10;;;;;;5015639;28;86910;-60
2024/02/29 01:06:50;;;;;;;;;;;12.00;88.10;;;;;;5014615;28;87619;-56
2024/02/29 01:09:15;;;;;;;;;;;12.00;88.20;;;;;;5016928;28;87804;-60
2024/02/29 01:11:41;;;;;;;;;;;12.00;88.10;;;;;;5018229;28;87326;-58
2024/02/29 01:14:06;;;;;;;;;;;12.00;88.10;;;;;;5010843;28;88479;-60
2024/02/29 01:16:32;;;;;;;;;;;12.00;88.20;;;;;;5018999;28;87948;-60
2024/02/29 01:18:58;;;;;;;;;;;11.90;88.00;;;;;;5017789;28;88682;-60
2024/02/29 01:21:23;;;;;;;;;;;11.90;88.00;;;;;;5014437;28;87138;-59
2024/02/29 01:23:49;;;;;;;;;;;11.90;88.10;;;;;;5024813;28;87621;-60
2024/02/29 01:26:14;;;;;;;;;;;11.90;88.20;;;;;;5023341;28;87801;-60
2024/02/29 01:28:40;;;;;;;;;;;11.80;88.10;;;;;;5017751;28;88245;-61
2024/02/29 01:31:05;;;;;;;;;;;11.90;88.10;;;;;;5017655;28;87004;-60
2024/02/29 01:33:32;;;;;;;;;;;11.90;88.10;;;;;;5012425;28;87393;-59
2024/02/29 01:35:57;;;;;;;;;;;11.80;88.10;;;;;;5015945;28;86970;-59
2024/02/29 01:38:23;;;;;;;;;;;11.80;88.00;;;;;;5016244;28;86888;-60
2024/02/29 01:40:48;;;;;;;;;;;11.80;88.00;;;;;;5018312;28;87052;-60
2024/02/29 01:43:14;;;;;;;;;;;11.80;87.90;;;;;;5016850;28;87808;-59
2024/02/29 01:45:40;;;;;;;;;;;11.80;87.90;;;;;;5014531;28;87447;-60
2024/02/29 01:48:06;;;;;;;;;;;11.80;88.00;;;;;;5013335;28;87132;-60
2024/02/29 01:50:31;;;;;;;;;;;11.80;88.00;;;;;;5019489;28;86976;-59
2024/02/29 01:52:57;;;;;;;;;;;11.80;88.00;;;;;;5017502;28;87436;-59
2024/02/29 01:55:23;;;;;;;;;;;11.80;88.00;;;;;;5014808;28;86955;-59
2024/02/29 01:57:48;;;;;;;;;;;11.70;87.90;;;;;;5013999;28;87668;-59
2024/02/29 02:00:14;;;;;;;;;;;11.80;87.90;;;;;;5015213;28;86324;-58
2024/02/29 02:02:40;;;;;;;;;;;11.80;88.00;;;;;;5021304;28;86884;-59
2024/02/29 02:05:06;;;;;;;;;;;11.80;87.90;;;;;;5011325;28;87903;-59
2024/02/29 02:07:32;;;;;;;;;;;11.70;87.80;;;;;;5014682;28;88346;-59
2024/02/29 02:09:58;;;;;;;;;;;11.70;87.80;;;;;;5016741;28;87775;-59
2024/02/29 02:12:23;;;;;;;;;;;11.70;87.80;;;;;;5015893;28;86902;-59
2024/02/29 02:14:49;;;;;;;;;;;11.70;87.80;;;;;;5015304;28;87599;-56
2024/02/29 02:17:14;;;;;;;;;;;11.70;87.70;;;;;;5019912;28;87727;-60
2024/02/29 02:19:41;;;;;;;;;;;11.70;87.80;;;;;;5016189;28;87928;-60
2024/02/29 02:22:06;;;;;;;;;;;11.70;87.80;;;;;;5018039;28;86977;-59
2024/02/29 02:24:33;;;;;;;;;;;11.70;87.70;;;;;;5009445;28;86881;-60
2024/02/29 02:26:58;;;;;;;;;;;11.70;87.70;;;;;;5010999;28;87025;-60
2024/02/29 02:29:24;;;;;;;;;;;11.70;87.70;;;;;;5011751;28;86877;-59
2024/02/29 02:31:49;;;;;;;;;;;11.60;87.70;;;;;;5015795;28;90325;-57
2024/02/29 02:34:15;;;;;;;;;;;11.70;87.80;;;;;;5017221;28;87065;-59
2024/02/29 02:36:40;;;;;;;;;;;11.60;87.70;;;;;;5018271;28;88067;-59
2024/02/29 02:39:06;;;;;;;;;;;11.70;87.80;;;;;;5014731;28;86858;-60
2024/02/29 02:41:32;;;;;;;;;;;11.60;87.70;;;;;;5014425;28;87753;-58
2024/02/29 02:43:57;;;;;;;;;;;11.60;87.80;;;;;;5013451;28;87274;-59
2024/02/29 02:46:23;;;;;;;;;;;11.60;87.60;;;;;;5010757;28;87111;-59
2024/02/29 02:48:48;;;;;;;;;;;11.60;87.60;;;;;;5009930;28;86949;-60
2024/02/29 02:51:14;;;;;;;;;;;11.60;87.70;;;;;;5011742;28;87703;-60
2024/02/29 02:53:40;;;;;;;;;;;11.60;87.70;;;;;;5018920;28;87784;-59
2024/02/29 02:56:05;;;;;;;;;;;11.60;87.70;;;;;;5010049;28;88838;-59
2024/02/29 02:58:31;;;;;;;;;;;11.50;87.70;;;;;;5015753;28;87463;-59
2024/02/29 03:00:56;;;;;;;;;;;11.60;87.70;;;;;;5013842;28;88029;-60
2024/02/29 03:03:22;;;;;;;;;;;11.50;87.60;;;;;;5015225;28;87012;-59
2024/02/29 03:05:47;;;;;;;;;;;11.60;87.70;;;;;;5017584;28;87318;-59
2024/02/29 03:08:13;;;;;;;;;;;11.50;87.70;;;;;;5014669;28;87060;-60
2024/02/29 03:10:39;;;;;;;;;;;11.50;87.70;;;;;;5010108;28;87887;-60
2024/02/29 03:13:04;;;;;;;;;;;11.50;87.70;;;;;;5015886;28;86414;-59
2024/02/29 03:15:30;;;;;;;;;;;11.50;87.60;;;;;;5013565;28;87160;-59
2024/02/29 03:17:56;;;;;;;;;;;11.50;87.60;;;;;;5015416;28;87627;-60
2024/02/29 03:20:22;;;;;;;;;;;11.40;87.60;;;;;;5018116;28;88057;-59
2024/02/29 03:22:47;;;;;;;;;;;11.50;87.50;;;;;;5016027;28;87119;-59
2024/02/29 03:25:13;;;;;;;;;;;11.50;87.60;;;;;;5012952;28;87010;-59
2024/02/29 03:27:38;;;;;;;;;;;11.50;87.70;;;;;;5011368;28;87020;-60
2024/02/29 03:30:04;;;;;;;;;;;11.50;87.70;;;;;;5016093;28;88624;-57
2024/02/29 03:32:30;;;;;;;;;;;11.50;87.60;;;;;;5013317;28;87013;-59
2024/02/29 03:34:55;;;;;;;;;;;11.40;87.50;;;;;;5015240;28;87020;-59
2024/02/29 03:37:21;;;;;;;;;;;11.40;87.50;;;;;;5013450;28;86730;-57
2024/02/29 03:39:46;;;;;;;;;;;11.40;87.50;;;;;;5014321;28;87001;-58
2024/02/29 03:42:12;;;;;;;;;;;11.40;87.60;;;;;;5016214;28;87002;-60
2024/02/29 03:44:41;;;;;;;;;;;11.40;87.60;;;;;;5014347;28;87842;-59
2024/02/29 03:47:06;;;;;;;;;;;11.40;87.70;;;;;;5012458;28;88790;-60
2024/02/29 03:49:32;;;;;;;;;;;11.40;87.60;;;;;;5017383;28;87002;-59
2024/02/29 03:51:58;;;;;;;;;;;11.40;87.60;;;;;;5020604;28;87003;-59
2024/02/29 03:54:23;;;;;;;;;;;11.30;87.50;;;;;;5015113;28;87109;-59
2024/02/29 03:56:49;;;;;;;;;;;11.30;87.60;;;;;;5013904;28;88021;-59
2024/02/29 03:59:14;;;;;;;;;;;11.30;87.50;;;;;;5020259;28;87088;-59
2024/02/29 04:01:45;;;;;;;;;;;11.30;87.60;;;;;;5020215;28;86265;-59
2024/02/29 04:04:11;;;;;;;;;;;11.30;87.50;;;;;;5018640;28;87396;-59
2024/02/29 04:06:36;;;;;;;;;;;11.30;87.40;;;;;;5017826;28;88158;-59
2024/02/29 04:09:02;;;;;;;;;;;11.30;87.50;;;;;;5015125;28;88910;-59
2024/02/29 04:11:28;;;;;;;;;;;11.30;87.50;;;;;;5018954;28;86986;-59
2024/02/29 04:13:54;;;;;;;;;;;11.30;87.60;;;;;;5012631;28;87003;-59
2024/02/29 04:16:20;;;;;;;;;;;11.30;87.50;;;;;;5016836;28;87508;-56
2024/02/29 04:18:45;;;;;;;;;;;11.30;87.60;;;;;;5016170;28;87202;-60
2024/02/29 04:21:11;;;;;;;;;;;11.30;87.60;;;;;;5018815;28;87083;-57
2024/02/29 04:23:36;;;;;;;;;;;11.30;87.50;;;;;;5022729;28;87394;-59
2024/02/29 04:26:02;;;;;;;;;;;11.30;87.40;;;;;;5017069;28;86189;-61
2024/02/29 04:28:28;;;;;;;;;;;11.30;87.40;;;;;;5015655;28;87932;-59
2024/02/29 04:30:53;;;;;;;;;;;11.30;87.50;;;;;;5013255;28;87891;-57
2024/02/29 04:33:19;;;;;;;;;;;11.20;87.40;;;;;;5019350;28;87890;-59
2024/02/29 04:35:44;;;;;;;;;;;11.30;87.50;;;;;;5019995;28;87493;-59
2024/02/29 04:38:10;;;;;;;;;;;11.20;87.40;;;;;;5016748;28;87044;-60
2024/02/29 04:40:35;;;;;;;;;;;11.20;87.40;;;;;;5017322;28;86870;-60
2024/02/29 04:43:01;;;;;;;;;;;11.20;87.40;;;;;;5018676;28;87808;-60
2024/02/29 04:45:27;;;;;;;;;;;11.20;87.30;;;;;;5017617;28;87005;-59
2024/02/29 04:47:53;;;;;;;;;;;11.20;87.30;;;;;;5019715;28;87611;-59
2024/02/29 04:50:19;;;;;;;;;;;11.20;87.40;;;;;;5015019;28;86238;-59
2024/02/29 04:52:45;;;;;;;;;;;11.20;87.50;;;;;;5015748;28;86916;-59
2024/02/29 04:55:11;;;;;;;;;;;11.20;87.40;;;;;;5018088;28;87638;-59
2024/02/29 04:57:36;;;;;;;;;;;11.20;87.50;;;;;;5013993;28;87941;-59
2024/02/29 05:00:02;;;;;;;;;;;11.10;87.40;;;;;;5016386;28;87763;-59
2024/02/29 05:02:28;;;;;;;;;;;11.20;88.00;;;;;;5016725;28;87606;-59
2024/02/29 05:04:54;;;;;;;;;;;11.10;87.40;;;;;;5018294;28;87146;-59
2024/02/29 05:07:21;;;;;;;;;;;11.20;87.40;;;;;;5016641;28;87008;-59
2024/02/29 05:09:46;;;;;;;;;;;11.10;87.50;;;;;;5013875;28;87031;-59
2024/02/29 05:12:12;;;;;;;;;;;11.10;87.40;;;;;;5020994;28;86965;-59
2024/02/29 05:14:38;;;;;;;;;;;11.10;87.40;;;;;;5021460;28;86647;-59
2024/02/29 05:17:03;;;;;;;;;;;11.10;87.40;;;;;;5013636;28;87139;-59
2024/02/29 05:19:29;;;;;;;;;;;11.00;87.40;;;;;;5013856;28;86988;-59
2024/02/29 05:21:55;;;;;;;;;;;11.00;87.40;;;;;;5013662;28;88362;-59
2024/02/29 05:24:21;;;;;;;;;;;11.10;87.50;;;;;;5012288;28;87040;-60
2024/02/29 05:26:47;;;;;;;;;;;11.10;87.40;;;;;;5013813;28;87572;-59
2024/02/29 05:29:13;;;;;;;;;;;11.10;87.40;;;;;;5018790;28;87719;-59
2024/02/29 05:31:38;;;;;;;;;;;11.10;87.40;;;;;;5016871;28;87067;-59
2024/02/29 05:34:04;;;;;;;;;;;11.10;87.40;;;;;;5014378;28;87480;-60
2024/02/29 05:36:29;;;;;;;;;;;11.00;87.40;;;;;;5017066;28;88847;-59
2024/02/29 05:38:55;;;;;;;;;;;11.00;87.30;;;;;;5017844;28;86816;-59
2024/02/29 05:41:20;;;;;;;;;;;11.00;87.40;;;;;;5019343;28;87730;-59
2024/02/29 05:43:46;;;;;;;;;;;11.00;87.40;;;;;;5019947;28;87131;-59
2024/02/29 05:46:12;;;;;;;;;;;11.00;87.40;;;;;;5014706;28;87973;-59
2024/02/29 05:48:38;;;;;;;;;;;11.00;87.40;;;;;;5014804;28;87605;-59
2024/02/29 05:51:04;;;;;;;;;;;11.00;87.40;;;;;;5014940;28;87144;-59
2024/02/29 05:53:29;;;;;;;;;;;10.90;87.40;;;;;;5010957;28;88884;-59
2024/02/29 05:55:55;;;;;;;;;;;11.00;87.50;;;;;;5012835;28;86999;-58
2024/02/29 05:58:21;;;;;;;;;;;10.90;87.30;;;;;;5016736;28;87629;-59
2024/02/29 06:00:46;;;;;;;;;;;10.90;87.40;;;;;;5017030;28;88415;-59
2024/02/29 06:03:12;;;;;;;;;;;10.90;87.40;;;;;;5008247;28;86764;-59
2024/02/29 06:05:38;;;;;;;;;;;10.90;87.60;;;;;;5018602;28;87070;-59
2024/02/29 06:08:04;;;;;;;;;;;10.90;87.50;;;;;;5014567;28;87495;-59
2024/02/29 06:10:30;;;;;;;;;;;10.90;87.50;;;;;;5013753;28;87930;-56
2024/02/29 06:12:55;;;;;;;;;;;10.90;87.50;;;;;;5015640;28;87956;-59
2024/02/29 06:15:21;;;;;;;;;;;10.90;87.50;;;;;;5015976;28;87620;-56
2024/02/29 06:17:47;;;;;;;;;;;10.90;87.50;;;;;;5014722;28;87154;-59
2024/02/29 06:20:12;;;;;;;;;;;10.90;87.60;;;;;;5016463;28;90311;-59
2024/02/29 06:22:39;;;;;;;;;;;10.90;87.60;;;;;;5013502;28;87934;-59
2024/02/29 06:25:05;;;;;;;;;;;10.90;87.60;;;;;;5010663;28;87305;-59
2024/02/29 06:27:31;;;;;;;;;;;10.80;87.60;;;;;;5015773;28;86907;-59
2024/02/29 06:29:56;;;;;;;;;;;10.80;87.60;;;;;;5012516;28;88036;-57
2024/02/29 06:32:24;;;;;;;;;;;10.80;87.70;;;;;;5015218;28;87046;-57
2024/02/29 06:34:50;;;;;;;;;;;10.80;87.60;;;;;;5012584;28;87940;-60
2024/02/29 06:37:16;;;;;;;;;;;10.80;87.60;;;;;;5011311;28;87826;-59
2024/02/29 06:39:41;;;;;;;;;;;10.80;87.50;;;;;;5013894;28;87393;-59
2024/02/29 06:42:07;;;;;;;;;;;10.80;87.60;;;;;;5012584;28;88258;-59
2024/02/29 06:44:32;;;;;;;;;;;10.80;87.60;;;;;;5014416;28;86956;-59
2024/02/29 06:46:58;;;;;;;;;;;10.80;87.70;;;;;;5014356;28;87947;-59
2024/02/29 06:49:24;;;;;;;;;;;10.80;87.60;;;;;;5014297;28;87095;-59
2024/02/29 06:51:50;;;;;;;;;;;10.80;87.70;;;;;;5014313;28;86260;-58
2024/02/29 06:54:17;;;;;;;;;;;10.80;87.60;;;;;;5016819;28;87970;-59
2024/02/29 06:56:44;;;;;;;;;;;10.80;87.60;;;;;;5014193;28;87014;-59
2024/02/29 06:59:09;;;;;;;;;;;10.80;87.60;;;;;;5018966;28;89830;-59
2024/02/29 07:01:36;;;;;;;;;;;10.80;87.70;;;;;;5014653;28;87351;-59
2024/02/29 07:04:02;;;;;;;;;;;10.80;87.70;;;;;;5011923;28;87400;-59
2024/02/29 07:06:28;;;;;;;;;;;10.80;87.70;;;;;;5017150;28;87465;-59
2024/02/29 07:08:54;;;;;;;;;;;10.80;87.70;;;;;;5015913;28;88115;-59
2024/02/29 07:11:20;;;;;;;;;;;10.70;87.60;;;;;;5018336;28;87053;-59
2024/02/29 07:13:46;;;;;;;;;;;10.80;87.70;;;;;;5008545;28;87621;-59
2024/02/29 07:16:11;;;;;;;;;;;10.80;87.70;;;;;;5016773;28;87015;-59
2024/02/29 07:18:37;;;;;;;;;;;10.80;87.70;;;;;;5013056;28;87645;-59
2024/02/29 07:21:04;;;;;;;;;;;10.70;87.70;;;;;;5012312;28;87225;-57
2024/02/29 07:23:31;;;;;;;;;;;10.70;87.80;;;;;;5014750;28;87918;-59
2024/02/29 07:25:57;;;;;;;;;;;10.70;87.80;;;;;;5015237;28;87330;-59
2024/02/29 07:28:22;;;;;;;;;;;10.70;87.90;;;;;;5011513;28;87401;-58
2024/02/29 07:30:48;;;;;;;;;;;10.70;87.90;;;;;;5011177;28;86971;-59
2024/02/29 07:33:14;;;;;;;;;;;10.70;87.90;;;;;;5015148;28;87733;-59
2024/02/29 07:35:39;;;;;;;;;;;10.70;87.90;;;;;;5015584;28;87588;-59
2024/02/29 07:38:05;;;;;;;;;;;10.70;88.00;;;;;;5016341;28;89152;-54
2024/02/29 07:40:30;;;;;;;;;;;10.60;87.90;;;;;;5014986;28;88364;-59
2024/02/29 07:42:56;;;;;;;;;;;10.70;88.00;;;;;;5015143;28;86907;-59
2024/02/29 07:45:21;;;;;;;;;;;10.70;88.00;;;;;;5017509;28;87305;-58
2024/02/29 07:47:47;;;;;;;;;;;10.70;88.00;;;;;;5008873;28;87894;-59
2024/02/29 07:50:13;;;;;;;;;;;10.70;88.00;;;;;;5011479;28;88043;-61
2024/02/29 07:52:38;;;;;;;;;;;10.70;88.00;;;;;;5013619;28;87406;-59
2024/02/29 07:55:05;;;;;;;;;;;10.70;88.00;;;;;;5013837;28;87300;-59
2024/02/29 07:57:31;;;;;;;;;;;10.70;88.00;;;;;;5010824;28;87097;-59
2024/02/29 07:59:56;;;;;;;;;;;10.70;88.00;;;;;;5013221;28;88043;-59
2024/02/29 08:02:22;;;;;;;;;;;10.70;88.10;;;;;;5012312;28;86982;-56
2024/02/29 08:04:47;;;;;;;;;;;10.70;88.00;;;;;;5018161;28;86993;-59
2024/02/29 08:07:13;;;;;;;;;;;10.70;88.10;;;;;;5008945;28;87600;-59
2024/02/29 08:09:39;;;;;;;;;;;10.70;88.10;;;;;;5017177;28;87226;-59
2024/02/29 08:12:05;;;;;;;;;;;10.70;88.00;;;;;;5019811;28;88426;-59
2024/02/29 08:14:31;;;;;;;;;;;10.70;88.10;;;;;;5008411;28;88175;-57
2024/02/29 08:16:57;;;;;;;;;;;10.70;88.20;;;;;;5009872;28;87538;-59
2024/02/29 08:19:23;;;;;;;;;;;10.60;88.10;;;;;;5012532;28;90105;-56
2024/02/29 08:21:49;;;;;;;;;;;10.60;88.10;;;;;;5016071;28;86785;-59
2024/02/29 08:24:14;;;;;;;;;;;10.60;88.20;;;;;;5010907;28;87571;-57
2024/02/29 08:26:40;;;;;;;;;;;10.60;88.20;;;;;;5014051;28;88213;-59
2024/02/29 08:29:05;;;;;;;;;;;10.60;88.20;;;;;;5011059;28;87286;-59
2024/02/29 08:31:31;;;;;;;;;;;10.60;88.30;;;;;;5012533;28;87598;-60
2024/02/29 08:33:57;;;;;;;;;;;10.60;88.30;;;;;;5021056;28;87863;-59
2024/02/29 08:36:22;;;;;;;;;;;10.60;88.40;;;;;;5019447;28;87972;-58
2024/02/29 08:38:49;;;;;;;;;;;10.60;88.30;;;;;;5010803;28;87437;-58
2024/02/29 08:41:15;;;;;;;;;;;10.60;88.30;;;;;;5018956;28;86976;-59
2024/02/29 08:43:42;;;;;;;;;;;10.60;88.30;;;;;;5012769;28;87012;-59
2024/02/29 08:46:08;;;;;;;;;;;10.60;88.30;;;;;;5015418;28;88117;-59
2024/02/29 08:48:34;;;;;;;;;;;10.60;88.20;;;;;;5018880;28;87812;-59
2024/02/29 08:51:00;;;;;;;;;;;10.60;88.20;;;;;;5013499;28;87264;-59
2024/02/29 08:53:26;;;;;;;;;;;10.60;88.30;;;;;;5018522;28;86955;-59
2024/02/29 08:55:51;;;;;;;;;;;10.60;88.40;;;;;;5014038;28;87440;-60
2024/02/29 08:58:17;;;;;;;;;;;10.60;88.50;;;;;;5012464;28;89736;-58
2024/02/29 09:00:44;;;;;;;;;;;10.60;88.40;;;;;;5014432;28;88753;-59
2024/02/29 09:03:10;;;;;;;;;;;10.60;88.50;;;;;;5013900;28;87969;-59
2024/02/29 09:05:35;;;;;;;;;;;10.60;88.50;;;;;;5017620;28;87032;-59
2024/02/29 09:08:01;;;;;;;;;;;10.50;88.50;;;;;;5022045;28;86952;-59
2024/02/29 09:10:27;;;;;;;;;;;10.60;88.60;;;;;;5014004;28;87640;-59
2024/02/29 09:12:54;;;;;;;;;;;10.60;88.60;;;;;;5014085;28;87558;-58
2024/02/29 09:15:20;;;;;;;;;;;10.60;88.70;;;;;;5013297;28;87102;-59
2024/02/29 09:17:45;;;;;;;;;;;10.50;88.60;;;;;;5012593;28;86686;-59
2024/02/29 09:20:11;;;;;;;;;;;10.60;88.70;;;;;;5020519;28;87090;-59
2024/02/29 09:22:36;;;;;;;;;;;10.50;88.70;;;;;;5012212;28;87753;-60
2024/02/29 09:25:03;;;;;;;;;;;10.60;88.80;;;;;;5015033;28;88652;-58
2024/02/29 09:27:29;;;;;;;;;;;10.60;88.80;;;;;;5013855;28;87703;-60
2024/02/29 09:29:54;;;;;;;;;;;10.60;88.80;;;;;;5015094;28;88579;-59
2024/02/29 09:32:20;;;;;;;;;;;10.50;88.80;;;;;;5019650;28;87182;-60
2024/02/29 09:34:45;;;;;;;;;;;10.50;88.80;;;;;;5016198;28;87426;-59
2024/02/29 09:37:11;;;;;;;;;;;10.60;88.80;;;;;;5019100;28;87402;-59
2024/02/29 09:39:36;;;;;;;;;;;10.60;88.80;;;;;;5015390;28;87244;-59
2024/02/29 09:42:03;;;;;;;;;;;10.50;88.80;;;;;;5011998;28;87065;-58
2024/02/29 09:44:29;;;;;;;;;;;10.50;88.80;;;;;;5011615;28;87751;-59
2024/02/29 09:46:55;;;;;;;;;;;10.50;88.80;;;;;;5019782;28;86934;-59
2024/02/29 09:49:20;;;;;;;;;;;10.50;88.90;;;;;;5018855;28;88285;-59
2024/02/29 09:51:46;;;;;;;;;;;10.60;88.90;;;;;;5012662;28;88406;-59
2024/02/29 09:54:14;;;;;;;;;;;10.50;88.80;;;;;;5011595;28;87049;-59
2024/02/29 09:56:40;;;;;;;;;;;10.60;88.90;;;;;;5021328;28;90096;-58
2024/02/29 09:59:06;;;;;;;;;;;10.60;88.90;;;;;;5018191;28;86956;-58
2024/02/29 10:01:31;;;;;;;;;;;10.50;88.70;;;;;;5014771;28;87031;-59
2024/02/29 10:03:58;;;;;;;;;;;10.60;88.80;;;;;;5010881;28;87927;-59
2024/02/29 10:06:24;;;;;;;;;;;10.60;88.80;;;;;;5020635;28;86114;-58
2024/02/29 10:08:50;;;;;;;;;;;10.60;88.80;;;;;;5016688;28;87053;-59
2024/02/29 10:11:15;;;;;;;;;;;10.60;88.70;;;;;;5015923;28;87447;-58
2024/02/29 10:13:41;;;;;;;;;;;10.60;88.80;;;;;;5012210;28;89626;-59
2024/02/29 10:16:08;;;;;;;;;;;10.60;88.80;;;;;;5012872;28;87769;-59
2024/02/29 10:18:35;;;;;;;;;;;10.50;88.80;;;;;;5014153;28;87036;-59
2024/02/29 10:21:02;;;;;;;;;;;10.50;88.80;;;;;;5014053;28;86964;-59
2024/02/29 10:23:29;;;;;;;;;;;10.60;88.90;;;;;;5011721;28;88090;-59
2024/02/29 10:25:54;;;;;;;;;;;10.60;88.70;;;;;;5018586;28;87160;-58
2024/02/29 10:28:20;;;;;;;;;;;10.60;88.70;;;;;;5009892;28;87077;-59
2024/02/29 10:30:58;;;;;;;;;;;10.60;88.70;;;;;;5015498;28;87368;-58
2024/02/29 10:33:24;;;;;;;;;;;10.60;88.70;;;;;;5017692;28;86994;-58
2024/02/29 10:35:50;;;;;;;;;;;10.60;88.60;;;;;;5014829;28;87591;-59
2024/02/29 10:38:16;;;;;;;;;;;10.60;88.60;;;;;;5012600;28;87986;-59
2024/02/29 10:40:41;;;;;;;;;;;10.60;88.50;;;;;;5011399;28;87509;-59
2024/02/29 10:43:11;;;;;;;;;;;10.60;89.20;;;;;;5010215;28;87957;-59
2024/02/29 10:45:42;;;;;;;;;;;10.70;88.80;;;;;;5011594;28;87001;-59
2024/02/29 10:48:07;;;;;;;;;;;10.70;88.80;;;;;;5011686;28;88279;-59
2024/02/29 10:50:52;;;;;;;;;;;10.70;88.80;;;;;;5017365;28;87572;-59
2024/02/29 10:53:33;;;;;;;;;;;10.70;89.00;;;;;;5012722;28;87608;-58
2024/02/29 10:56:02;;;;;;;;;;;10.70;88.90;;;;;;5014666;28;86943;-59
2024/02/29 10:58:35;;;;;;;;;;;10.70;89.00;;;;;;5013080;28;87737;-59
2024/02/29 11:01:02;;;;;;;;;;;10.70;89.00;;;;;;5015085;28;87136;-59
2024/02/29 11:03:29;;;;;;;;;;;10.70;89.20;;;;;;5006540;28;89284;-59
2024/02/29 11:05:55;;;;;;;;;;;10.70;89.10;;;;;;5015468;28;87100;-59
2024/02/29 11:08:21;;;;;;;;;;;10.70;89.20;;;;;;5013525;28;87161;-59
2024/02/29 11:10:48;;;;;;;;;;;10.70;89.00;;;;;;5008955;28;88719;-59
2024/02/29 11:13:17;;;;;;;;;;;10.70;89.10;;;;;;5018507;28;87498;-59
2024/02/29 11:15:43;;;;;;;;;;;10.70;89.00;;;;;;5013507;28;87389;-59
2024/02/29 11:18:18;;;;;;;;;;;10.70;89.10;;;;;;5012829;28;87773;-59
2024/02/29 11:20:44;;;;;;;;;;;10.70;89.10;;;;;;5015034;28;87080;-59
2024/02/29 11:23:09;;;;;;;;;;;10.80;89.20;;;;;;5016668;28;87733;-59
2024/02/29 11:25:40;;;;;;;;;;;10.70;89.40;;;;;;5012047;28;87007;-59
2024/02/29 11:28:06;;;;;;;;;;;10.80;89.20;;;;;;5014587;28;87932;-59
2024/02/29 11:30:32;;;;;;;;;;;10.80;89.00;;;;;;5007264;28;89485;-59
2024/02/29 11:33:06;;;;;;;;;;;10.80;89.00;;;;;;5009189;28;87847;-59
2024/02/29 11:35:32;;;;;;;;;;;10.80;89.20;;;;;;5014153;28;87779;-59
2024/02/29 11:38:00;;;;;;;;;;;10.80;89.20;;;;;;5010373;28;88710;-59
2024/02/29 11:40:26;;;;;;;;;;;10.80;89.20;;;;;;5009322;28;87226;-59
2024/02/29 11:42:56;;;;;;;;;;;10.80;89.40;;;;;;5010208;28;88155;-59
2024/02/29 11:45:22;;;;;;;;;;;10.80;89.50;;;;;;5010954;28;87818;-56
2024/02/29 11:47:49;;;;;;;;;;;10.80;89.50;;;;;;5014003;28;87409;-59
2024/02/29 11:50:14;;;;;;;;;;;10.80;89.30;;;;;;5009980;28;87560;-58
2024/02/29 11:52:40;;;;;;;;;;;10.80;89.60;;;;;;5013721;28;87910;-59
2024/02/29 11:55:06;;;;;;;;;;;10.80;89.60;;;;;;5015321;28;90390;-61
2024/02/29 11:57:32;;;;;;;;;;;10.80;89.70;;;;;;5016712;28;87670;-59
2024/02/29 11:59:58;;;;;;;;;;;10.80;89.60;;;;;;5012940;28;87041;-59
2024/02/29 12:02:23;;;;;;;;;;;10.80;89.60;;;;;;5008739;28;87503;-57
2024/02/29 12:04:49;;;;;;;;;;;10.80;89.70;;;;;;5011791;28;87976;-59
2024/02/29 12:07:15;;;;;;;;;;;10.80;89.60;;;;;;5011778;28;87102;-59
2024/02/29 12:09:41;;;;;;;;;;;10.80;89.90;;;;;;5020638;28;86966;-59
2024/02/29 12:12:06;;;;;;;;;;;10.80;89.60;;;;;;5017294;28;87033;-59
2024/02/29 12:14:35;;;;;;;;;;;10.90;90.00;;;;;;5014810;28;87938;-59
2024/02/29 12:17:01;;;;;;;;;;;10.80;89.70;;;;;;5016736;28;88641;-58
2024/02/29 12:19:27;;;;;;;;;;;10.80;89.50;;;;;;5022665;28;87717;-59
2024/02/29 12:21:52;;;;;;;;;;;10.80;89.50;;;;;;5013666;28;87669;-55
2024/02/29 12:24:18;;;;;;;;;;;10.90;89.70;;;;;;5018063;28;87531;-58
2024/02/29 12:26:47;;;;;;;;;;;10.90;89.60;;;;;;5019986;28;89762;-59
2024/02/29 12:29:12;;;;;;;;;;;10.90;89.60;;;;;;5009053;28;87599;-59
2024/02/29 12:31:40;;;;;;;;;;;10.90;89.90;;;;;;5019382;28;87143;-59
2024/02/29 12:34:06;;;;;;;;;;;10.90;89.90;;;;;;5012351;28;87061;-59
2024/02/29 12:36:32;;;;;;;;;;;10.90;89.60;;;;;;5017892;28;87666;-59
2024/02/29 12:38:57;;;;;;;;;;;10.90;89.60;;;;;;5015387;28;87011;-59
2024/02/29 12:41:24;;;;;;;;;;;10.90;89.60;;;;;;5016740;28;88017;-58
2024/02/29 12:43:50;;;;;;;;;;;10.90;89.60;;;;;;5016053;28;87173;-59
2024/02/29 12:46:16;;;;;;;;;;;10.90;89.80;;;;;;5017038;28;87789;-59
2024/02/29 12:48:42;;;;;;;;;;;10.90;89.90;;;;;;5015535;28;87382;-59
2024/02/29 12:51:07;;;;;;;;;;;10.90;90.00;;;;;;5014819;28;89255;-59
2024/02/29 12:53:33;;;;;;;;;;;10.90;89.80;;;;;;5011486;28;87407;-59
2024/02/29 12:55:58;;;;;;;;;;;10.90;90.00;;;;;;5015649;28;90083;-59
2024/02/29 12:58:24;;;;;;;;;;;10.90;89.80;;;;;;5018422;28;86235;-58
2024/02/29 13:00:50;;;;;;;;;;;11.00;90.10;;;;;;5017362;28;87084;-56
2024/02/29 13:03:15;;;;;;;;;;;10.90;89.90;;;;;;5016359;28;88694;-59
2024/02/29 13:05:41;;;;;;;;;;;11.00;89.90;;;;;;5016949;28;87860;-59
2024/02/29 13:08:09;;;;;;;;;;;11.00;89.90;;;;;;5018009;28;87501;-59
2024/02/29 13:10:35;;;;;;;;;;;11.00;90.00;;;;;;5013281;28;87007;-59
2024/02/29 13:13:03;;;;;;;;;;;11.00;90.00;;;;;;5010885;28;87347;-59
2024/02/29 13:15:29;;;;;;;;;;;11.00;90.10;;;;;;5016562;28;87519;-59
2024/02/29 13:17:54;;;;;;;;;;;11.00;90.10;;;;;;5015528;28;87215;-58
2024/02/29 13:20:20;;;;;;;;;;;11.00;90.00;;;;;;5013698;28;86971;-56
2024/02/29 13:22:45;;;;;;;;;;;11.00;90.10;;;;;;5016774;28;88621;-58
2024/02/29 13:25:11;;;;;;;;;;;11.00;90.10;;;;;;5014685;28;86923;-59
2024/02/29 13:27:37;;;;;;;;;;;11.00;90.10;;;;;;5014495;28;87437;-59
2024/02/29 13:30:03;;;;;;;;;;;11.00;90.10;;;;;;5013988;28;87997;-59
2024/02/29 13:32:28;;;;;;;;;;;11.00;90.10;;;;;;5011307;28;87589;-59
2024/02/29 13:34:54;;;;;;;;;;;11.10;90.20;;;;;;5014034;28;87631;-57
2024/02/29 13:37:19;;;;;;;;;;;11.10;90.10;;;;;;5014515;28;87370;-59
2024/02/29 13:39:45;;;;;;;;;;;11.10;90.20;;;;;;5010810;28;88695;-59
2024/02/29 13:42:11;;;;;;;;;;;11.10;90.20;;;;;;5009392;28;88059;-59
2024/02/29 13:44:37;;;;;;;;;;;11.10;90.30;;;;;;5021618;28;87067;-59
2024/02/29 13:47:04;;;;;;;;;;;11.10;90.40;;;;;;5015069;28;86949;-60
2024/02/29 13:49:31;;;;;;;;;;;11.10;90.40;;;;;;5016148;28;87072;-60
2024/02/29 13:51:56;;;;;;;;;;;11.10;90.50;;;;;;5014187;28;87057;-59
2024/02/29 13:54:22;;;;;;;;;;;11.10;90.50;;;;;;5016190;28;88318;-59
2024/02/29 13:56:48;;;;;;;;;;;11.10;90.40;;;;;;5016305;28;87274;-60
2024/02/29 13:59:14;;;;;;;;;;;11.10;90.40;;;;;;5010238;28;87672;-59
2024/02/29 14:01:39;;;;;;;;;;;11.10;90.50;;;;;;5017822;28;87743;-60
2024/02/29 14:04:05;;;;;;;;;;;11.10;90.50;;;;;;5014032;28;87801;-59
2024/02/29 14:06:31;;;;;;;;;;;11.10;90.50;;;;;;5014049;28;87054;-59
2024/02/29 14:08:56;;;;;;;;;;;11.10;90.50;;;;;;5009439;28;86953;-60